createdAt,value
2019-01-26T00:01:58.005Z,51.67
2019-01-26T00:04:38.385Z,53.33
2019-01-26T00:07:18.866Z,58.90
2019-01-26T00:09:59.475Z,51.67
2019-01-26T00:12:40.429Z,50.47
2019-01-26T00:15:21.389Z,48.20
2019-01-26T00:18:02.162Z,51.43
2019-01-26T00:20:43.328Z,51.67
2019-01-26T00:23:24.513Z,49.27
2019-01-26T00:26:05.585Z,50.73
2019-01-26T00:28:46.849Z,49.97
2019-01-26T00:31:27.445Z,53.00
2019-01-26T00:34:08.056Z,51.63
2019-01-26T00:36:48.636Z,51.00
2019-01-26T00:39:29.514Z,54.83
2019-01-26T00:41:57.941Z,48.90
2019-01-26T00:44:45.719Z,44.73
2019-01-26T00:47:33.481Z,46.43
2019-01-26T00:50:21.269Z,48.30
2019-01-26T00:53:09.007Z,46.97
2019-01-26T00:55:56.808Z,46.57
2019-01-26T00:58:44.568Z,46.97
2019-01-26T01:01:32.377Z,44.67
2019-01-26T01:04:20.401Z,44.70
2019-01-26T01:07:08.248Z,44.30
2019-01-26T01:09:56.001Z,37.70
2019-01-26T01:12:43.789Z,42.83
2019-01-26T01:15:31.725Z,40.13
2019-01-26T01:18:19.502Z,40.43
2019-01-26T01:21:07.341Z,41.20
2019-01-26T01:23:55.176Z,41.23
2019-01-26T01:26:42.951Z,49.07
2019-01-26T01:29:30.696Z,40.93
2019-01-26T01:31:59.307Z,54.67
2019-01-26T01:34:40.115Z,45.07
2019-01-26T01:37:20.886Z,46.23
2019-01-26T01:40:01.656Z,38.37
2019-01-26T01:42:45.458Z,41.90
2019-01-26T01:45:25.833Z,39.57
2019-01-26T01:48:06.520Z,43.67
2019-01-26T01:50:47.094Z,43.73
2019-01-26T01:53:28.240Z,49.57
2019-01-26T01:56:08.588Z,46.33
2019-01-26T01:58:49.266Z,36.13
2019-01-26T02:01:29.896Z,43.10
2019-01-26T02:04:10.707Z,51.37
2019-01-26T02:06:51.264Z,41.53
2019-01-26T02:09:31.997Z,37.47
2019-01-26T02:12:12.836Z,35.63
2019-01-26T02:14:53.684Z,41.47
2019-01-26T02:17:34.784Z,42.97
2019-01-26T02:20:15.248Z,39.40
2019-01-26T02:22:56.440Z,42.77
2019-01-26T02:25:37.041Z,42.67
2019-01-26T02:28:17.897Z,47.73
2019-01-26T02:30:58.751Z,41.87
2019-01-26T02:33:40.641Z,40.23
2019-01-26T02:36:21.087Z,44.37
2019-01-26T02:39:02.054Z,43.97
2019-01-26T02:41:42.772Z,44.40
2019-01-26T02:44:23.464Z,43.57
2019-01-26T02:47:04.226Z,41.27
2019-01-26T02:49:45.019Z,56.10
2019-01-26T02:52:25.948Z,52.83
2019-01-26T02:55:06.708Z,46.40
2019-01-26T02:57:47.785Z,45.53
2019-01-26T03:00:28.477Z,50.87
2019-01-26T03:03:09.132Z,49.47
2019-01-26T03:05:50.297Z,49.33
2019-01-26T03:08:30.952Z,44.70
2019-01-26T03:11:11.956Z,51.63
2019-01-26T03:13:53.116Z,45.87
2019-01-26T03:16:33.547Z,51.43
2019-01-26T03:19:14.202Z,50.77
2019-01-26T03:21:54.744Z,49.00
2019-01-26T03:24:35.391Z,56.07
2019-01-26T03:27:16.035Z,44.63
2019-01-26T03:29:56.804Z,58.17
2019-01-26T03:32:37.976Z,51.43
2019-01-26T03:35:18.410Z,47.53
2019-01-26T03:37:59.563Z,49.30
2019-01-26T03:40:40.745Z,48.67
2019-01-26T03:43:21.406Z,44.83
2019-01-26T03:46:02.391Z,52.03
2019-01-26T03:48:42.847Z,42.03
2019-01-26T03:51:23.289Z,48.30
2019-01-26T03:54:04.085Z,43.70
2019-01-26T03:56:44.698Z,42.17
2019-01-26T03:59:25.214Z,43.70
2019-01-26T04:02:06.249Z,41.70
2019-01-26T04:04:47.104Z,43.30
2019-01-26T04:07:27.883Z,45.53
2019-01-26T04:10:08.792Z,42.10
2019-01-26T04:12:49.156Z,42.53
2019-01-26T04:15:30.024Z,39.03
2019-01-26T04:18:10.536Z,40.73
2019-01-26T04:20:51.019Z,36.57
2019-01-26T04:23:31.892Z,32.97
2019-01-26T04:26:12.326Z,37.30
2019-01-26T04:28:53.048Z,40.03
2019-01-26T04:31:33.940Z,39.47
2019-01-26T04:34:15.188Z,36.37
2019-01-26T04:36:55.852Z,29.57
2019-01-26T04:39:36.437Z,34.07
2019-01-26T04:42:16.940Z,31.23
2019-01-26T04:44:57.279Z,27.10
2019-01-26T04:47:38.219Z,33.50
2019-01-26T04:50:18.568Z,29.20
2019-01-26T04:52:59.356Z,27.20
2019-01-26T04:55:40.292Z,31.37
2019-01-26T04:58:21.441Z,35.97
2019-01-26T05:01:02.455Z,32.60
2019-01-26T05:03:42.880Z,30.23
2019-01-26T05:06:23.862Z,28.43
2019-01-26T05:09:04.973Z,28.27
2019-01-26T05:14:28.028Z,29.87
2019-01-26T05:17:08.685Z,26.33
2019-01-26T05:19:49.916Z,28.67
2019-01-26T05:22:31.059Z,34.57
2019-01-26T05:25:12.157Z,27.70
2019-01-26T05:27:53.196Z,23.70
2019-01-26T05:30:34.181Z,25.37
2019-01-26T05:33:14.848Z,32.67
2019-01-26T05:35:55.186Z,26.73
2019-01-26T05:38:36.200Z,26.50
2019-01-26T05:41:16.900Z,25.47
2019-01-26T05:43:57.837Z,25.90
2019-01-26T05:46:38.202Z,24.00
2019-01-26T05:49:19.003Z,30.40
2019-01-26T05:51:59.913Z,27.03
2019-01-26T05:54:40.570Z,27.40
2019-01-26T05:57:21.095Z,28.80
2019-01-26T06:00:02.028Z,21.30
2019-01-26T06:02:42.829Z,20.93
2019-01-26T06:05:23.448Z,19.63
2019-01-26T06:08:04.357Z,25.93
2019-01-26T06:10:45.758Z,22.10
2019-01-26T06:16:09.158Z,21.13
2019-01-26T06:18:49.773Z,19.53
2019-01-26T06:21:30.624Z,20.07
2019-01-26T06:23:59.053Z,22.63
2019-01-26T06:26:46.804Z,20.33
2019-01-26T06:29:34.596Z,22.13
2019-01-26T06:32:22.343Z,20.97
2019-01-26T06:35:10.385Z,21.80
2019-01-26T06:37:58.428Z,19.57
2019-01-26T06:40:46.224Z,23.37
2019-01-26T06:43:33.992Z,22.10
2019-01-26T06:46:24.732Z,21.77
2019-01-26T06:49:12.501Z,22.67
2019-01-26T06:52:00.288Z,21.07
2019-01-26T06:54:48.064Z,24.40
2019-01-26T06:57:35.850Z,24.23
2019-01-26T07:00:44.572Z,26.10
2019-01-26T07:03:32.352Z,22.83
2019-01-26T07:09:28.950Z,21.70
2019-01-26T07:12:16.977Z,19.97
2019-01-26T07:15:25.470Z,23.60
2019-01-26T07:18:09.659Z,23.93
2019-01-26T07:20:49.172Z,24.10
2019-01-26T07:23:30.226Z,20.83
2019-01-26T07:25:58.940Z,21.13
2019-01-26T07:28:46.749Z,25.93
2019-01-26T07:31:34.684Z,36.70
2019-01-26T07:34:22.427Z,30.27
2019-01-26T07:37:10.264Z,24.87
2019-01-26T07:39:58.072Z,22.80
2019-01-26T07:42:46.197Z,24.90
2019-01-26T07:45:34.216Z,25.47
2019-01-26T07:48:22.039Z,24.17
2019-01-26T07:51:09.840Z,23.53
2019-01-26T07:53:57.614Z,23.63
2019-01-26T07:56:45.352Z,24.73
2019-01-26T07:59:33.120Z,21.37
2019-01-26T08:02:23.065Z,25.27
2019-01-26T08:05:11.578Z,24.00
2019-01-26T08:07:59.412Z,22.73
2019-01-26T08:10:47.485Z,27.40
2019-01-26T08:13:35.552Z,27.73
2019-01-26T08:16:23.581Z,28.83
2019-01-26T08:19:04.204Z,20.43
2019-01-26T08:21:44.990Z,22.93
2019-01-26T08:24:25.672Z,25.63
2019-01-26T08:27:06.249Z,27.30
2019-01-26T08:29:46.880Z,18.07
2019-01-26T08:32:27.904Z,20.30
2019-01-26T08:35:08.914Z,20.70
2019-01-26T08:37:49.426Z,23.23
2019-01-26T08:40:30.486Z,22.70
2019-01-26T08:43:11.042Z,23.63
2019-01-26T08:45:51.682Z,23.87
2019-01-26T08:48:32.591Z,24.30
2019-01-26T08:51:13.664Z,22.03
2019-01-26T08:53:54.388Z,23.67
2019-01-26T08:56:35.185Z,21.50
2019-01-26T08:59:15.782Z,20.70
2019-01-26T09:01:59.153Z,17.30
2019-01-26T09:04:39.990Z,23.93
2019-01-26T09:07:21.096Z,23.00
2019-01-26T09:10:01.999Z,19.30
2019-01-26T09:12:45.220Z,20.93
2019-01-26T09:15:26.082Z,26.10
2019-01-26T09:18:06.894Z,20.20
2019-01-26T09:20:47.936Z,21.67
2019-01-26T09:23:29.042Z,23.60
2019-01-26T09:26:09.731Z,24.20
2019-01-26T09:28:50.535Z,18.67
2019-01-26T09:31:31.700Z,22.80
2019-01-26T09:34:12.200Z,25.57
2019-01-26T09:36:52.755Z,20.83
2019-01-26T09:39:33.737Z,20.13
2019-01-26T09:42:14.736Z,25.73
2019-01-26T09:44:55.704Z,23.73
2019-01-26T09:47:36.574Z,23.27
2019-01-26T09:50:17.207Z,26.30
2019-01-26T09:52:58.162Z,19.97
2019-01-26T09:55:38.859Z,21.57
2019-01-26T09:58:20.039Z,22.37
2019-01-26T10:01:00.386Z,20.50
2019-01-26T10:03:40.727Z,21.17
2019-01-26T10:06:21.700Z,18.30
2019-01-26T10:09:03.179Z,20.97
2019-01-26T10:11:44.183Z,23.53
2019-01-26T10:14:25.258Z,22.67
2019-01-26T10:17:06.037Z,24.70
2019-01-26T10:19:46.946Z,25.17
2019-01-26T10:22:28.208Z,29.77
2019-01-26T10:25:08.674Z,23.90
2019-01-26T10:27:37.100Z,22.67
2019-01-26T10:30:57.495Z,20.43
2019-01-26T10:33:35.106Z,22.10
2019-01-26T10:39:31.419Z,24.03
2019-01-26T10:48:26.383Z,20.73
2019-01-26T10:51:14.193Z,26.73
2019-01-26T10:54:02.192Z,25.83
2019-01-26T10:56:51.686Z,23.10
2019-01-26T11:00:00.306Z,20.80
2019-01-26T11:02:48.140Z,24.77
2019-01-26T11:05:39.294Z,23.63
2019-01-26T11:08:27.116Z,24.23
2019-01-26T11:11:48.877Z,27.60
2019-01-26T11:14:24.571Z,22.07
2019-01-26T11:17:12.475Z,25.27
2019-01-26T11:20:00.545Z,25.03
2019-01-26T11:25:36.021Z,20.83
2019-01-26T11:28:16.890Z,24.77
2019-01-26T11:30:57.652Z,23.20
2019-01-26T11:33:42.813Z,24.57
2019-01-26T11:36:23.600Z,22.33
2019-01-26T11:39:05.304Z,21.90
2019-01-26T11:41:46.091Z,19.20
2019-01-26T11:44:26.813Z,16.70
2019-01-26T11:47:07.753Z,18.10
2019-01-26T11:49:50.334Z,17.77
2019-01-26T11:52:31.320Z,17.17
2019-01-26T11:55:13.714Z,17.20
2019-01-26T11:57:54.878Z,13.97
2019-01-26T12:00:59.386Z,16.63
2019-01-26T12:03:56.708Z,14.73
2019-01-26T12:06:44.345Z,15.87
2019-01-26T12:09:32.087Z,17.77
2019-01-26T12:12:19.855Z,15.37
2019-01-26T12:15:28.327Z,15.93
2019-01-26T12:18:16.120Z,13.97
2019-01-26T12:20:56.924Z,18.77
2019-01-26T12:23:37.854Z,15.67
2019-01-26T12:26:18.588Z,14.50
2019-01-26T12:28:59.336Z,13.93
2019-01-26T12:31:40.245Z,20.97
2019-01-26T12:34:21.070Z,17.57
2019-01-26T12:37:02.007Z,17.70
2019-01-26T12:39:43.118Z,22.43
2019-01-26T12:45:36.364Z,14.40
2019-01-26T12:48:17.248Z,15.90
2019-01-26T12:50:58.571Z,18.57
2019-01-26T12:53:39.265Z,15.00
2019-01-26T12:56:20.196Z,15.40
2019-01-26T12:59:01.182Z,14.77
2019-01-26T13:01:42.032Z,17.80
2019-01-26T13:04:22.830Z,16.57
2019-01-26T13:07:03.749Z,17.63
2019-01-26T13:09:45.604Z,15.00
2019-01-26T13:12:26.573Z,16.97
2019-01-26T13:15:07.617Z,16.17
2019-01-26T13:17:48.290Z,16.10
2019-01-26T13:20:29.006Z,26.23
2019-01-26T13:23:09.823Z,8.73
2019-01-26T13:25:50.620Z,13.20
2019-01-26T13:28:31.696Z,10.20
2019-01-26T13:31:13.976Z,11.03
2019-01-26T13:33:54.382Z,11.37
2019-01-26T13:36:35.226Z,13.50
2019-01-26T13:39:15.832Z,13.83
2019-01-26T13:41:58.072Z,11.10
2019-01-26T13:44:41.867Z,14.50
2019-01-26T13:47:22.592Z,11.47
2019-01-26T13:50:03.348Z,15.43
2019-01-26T13:52:44.586Z,11.70
2019-01-26T13:55:25.151Z,27.23
2019-01-26T13:58:05.821Z,12.03
2019-01-26T14:00:46.798Z,13.67
2019-01-26T14:03:27.658Z,16.67
2019-01-26T14:05:56.081Z,14.60
2019-01-26T14:08:43.882Z,10.40
2019-01-26T14:14:25.224Z,13.23
2019-01-26T14:17:13.009Z,11.50
2019-01-26T14:20:00.752Z,13.63
2019-01-26T14:22:41.256Z,10.97
2019-01-26T14:25:22.087Z,9.10
2019-01-26T14:31:01.387Z,10.57
2019-01-26T14:33:42.097Z,11.03
2019-01-26T14:36:22.993Z,12.33
2019-01-26T14:39:04.519Z,11.27
2019-01-26T14:41:45.908Z,12.17
2019-01-26T14:44:26.498Z,10.23
2019-01-26T14:47:09.134Z,13.93
2019-01-26T14:49:50.009Z,15.03
2019-01-26T14:52:31.551Z,19.07
2019-01-26T14:55:11.845Z,18.57
2019-01-26T14:57:52.308Z,14.80
2019-01-26T15:00:33.281Z,11.23
2019-01-26T15:03:14.323Z,13.20
2019-01-26T15:05:55.074Z,10.47
2019-01-26T15:08:35.897Z,10.53
2019-01-26T15:11:16.727Z,10.43
2019-01-26T15:13:57.873Z,9.23
2019-01-26T15:16:38.574Z,10.13
2019-01-26T15:19:19.160Z,9.43
2019-01-26T15:21:59.875Z,10.23
2019-01-26T15:24:40.573Z,9.00
2019-01-26T15:27:21.608Z,10.30
2019-01-26T15:30:02.398Z,10.63
2019-01-26T15:32:43.382Z,12.40
2019-01-26T15:35:24.361Z,9.37
2019-01-26T15:38:05.176Z,9.77
2019-01-26T15:40:45.678Z,9.57
2019-01-26T15:43:26.538Z,8.47
2019-01-26T15:46:07.200Z,8.40
2019-01-26T15:48:47.735Z,8.80
2019-01-26T15:51:28.329Z,9.20
2019-01-26T15:54:09.165Z,9.00
2019-01-26T15:56:49.633Z,9.13
2019-01-26T15:59:30.409Z,8.63
2019-01-26T16:02:10.996Z,10.00
2019-01-26T16:04:51.806Z,8.77
2019-01-26T16:07:32.565Z,9.40
2019-01-26T16:10:13.200Z,9.60
2019-01-26T16:12:53.888Z,9.97
2019-01-26T16:15:34.557Z,9.97
2019-01-26T16:18:15.549Z,10.67
2019-01-26T16:20:56.172Z,10.23
2019-01-26T16:23:37.257Z,10.67
2019-01-26T16:26:18.017Z,10.60
2019-01-26T16:28:58.680Z,10.77
2019-01-26T16:31:39.313Z,9.77
2019-01-26T16:34:19.969Z,10.80
2019-01-26T16:37:01.102Z,10.30
2019-01-26T16:39:41.818Z,11.07
2019-01-26T16:42:22.445Z,10.03
2019-01-26T16:45:03.444Z,10.23
2019-01-26T16:47:44.168Z,14.20
2019-01-26T16:50:27.690Z,11.80
2019-01-26T16:53:07.900Z,13.93
2019-01-26T16:55:50.282Z,10.90
2019-01-26T16:58:31.626Z,11.03
2019-01-26T17:01:12.369Z,11.83
2019-01-26T17:03:52.816Z,11.83
2019-01-26T17:06:33.689Z,11.87
2019-01-26T17:09:14.810Z,11.73
2019-01-26T17:11:55.392Z,11.33
2019-01-26T17:14:36.062Z,11.27
2019-01-26T17:17:16.582Z,9.90
2019-01-26T17:19:57.300Z,10.63
2019-01-26T17:22:38.121Z,9.20
2019-01-26T17:25:07.130Z,11.60
2019-01-26T17:27:55.114Z,10.63
2019-01-26T17:30:43.205Z,13.17
2019-01-26T17:33:31.139Z,12.03
2019-01-26T17:36:19.003Z,9.80
2019-01-26T17:39:27.626Z,10.97
2019-01-26T17:42:15.507Z,8.80
2019-01-26T17:45:24.080Z,12.13
2019-01-26T17:48:11.936Z,11.53
2019-01-26T17:50:59.818Z,9.10
2019-01-26T17:53:47.570Z,11.43
2019-01-26T17:56:54.890Z,9.03
2019-01-26T17:59:42.646Z,8.63
2019-01-26T18:02:30.463Z,9.10
2019-01-26T18:04:59.060Z,9.13
2019-01-26T18:08:06.269Z,10.67
2019-01-26T18:10:54.272Z,9.70
2019-01-26T18:13:42.133Z,9.67
2019-01-26T18:16:30.047Z,11.00
2019-01-26T18:19:17.948Z,10.97
2019-01-26T18:21:58.922Z,13.03
2019-01-26T18:24:39.583Z,12.93
2019-01-26T18:27:19.972Z,14.07
2019-01-26T18:30:00.843Z,14.27
2019-01-26T18:32:45.334Z,14.47
2019-01-26T18:35:25.016Z,14.93
2019-01-26T18:38:05.837Z,13.77
2019-01-26T18:40:46.920Z,18.17
2019-01-26T18:43:27.772Z,17.90
2019-01-26T18:46:08.750Z,18.37
2019-01-26T18:48:49.492Z,22.47
2019-01-26T18:51:30.170Z,21.37
2019-01-26T18:54:11.289Z,20.10
2019-01-26T18:56:51.983Z,22.07
2019-01-26T18:59:32.645Z,20.13
2019-01-26T19:02:13.396Z,21.03
2019-01-26T19:04:54.664Z,21.83
2019-01-26T19:07:35.697Z,21.77
2019-01-26T19:10:16.792Z,22.00
2019-01-26T19:12:57.264Z,21.40
2019-01-26T19:15:39.507Z,19.93
2019-01-26T19:18:19.905Z,20.83
2019-01-26T19:21:03.325Z,21.07
2019-01-26T19:23:43.619Z,18.83
2019-01-26T19:26:24.691Z,17.80
2019-01-26T19:29:05.454Z,16.47
2019-01-26T19:31:46.715Z,17.33
2019-01-26T19:34:27.664Z,18.17
2019-01-26T19:37:09.358Z,17.73
2019-01-26T19:39:50.286Z,15.67
2019-01-26T19:42:31.500Z,16.47
2019-01-26T19:45:12.160Z,12.83
2019-01-26T19:47:52.683Z,13.23
2019-01-26T19:50:33.651Z,13.67
2019-01-26T19:53:14.869Z,16.17
2019-01-26T19:55:55.899Z,14.53
2019-01-26T19:58:36.697Z,17.33
2019-01-26T20:01:17.389Z,19.27
2019-01-26T20:03:58.222Z,18.33
2019-01-26T20:06:38.834Z,21.40
2019-01-26T20:09:19.477Z,18.50
2019-01-26T20:12:00.012Z,18.33
2019-01-26T20:14:40.776Z,20.07
2019-01-26T20:17:21.242Z,20.67
2019-01-26T20:19:49.719Z,20.30
2019-01-26T20:22:37.497Z,19.73
2019-01-26T20:25:25.713Z,21.63
2019-01-26T20:28:13.567Z,19.83
2019-01-26T20:31:01.353Z,19.73
2019-01-26T20:33:49.412Z,22.50
2019-01-26T20:36:37.191Z,19.10
2019-01-26T20:39:25.010Z,19.57
2019-01-26T20:42:05.907Z,17.97
2019-01-26T20:44:46.619Z,18.80
2019-01-26T20:47:27.285Z,17.93
2019-01-26T20:50:07.777Z,17.37
2019-01-26T20:52:48.940Z,18.80
2019-01-26T20:55:29.607Z,19.30
2019-01-26T20:58:10.257Z,18.63
2019-01-26T21:00:51.356Z,23.93
2019-01-26T21:03:31.996Z,20.43
2019-01-26T21:06:12.521Z,21.53
2019-01-26T21:08:53.413Z,24.83
2019-01-26T21:11:34.258Z,21.10
2019-01-26T21:14:14.705Z,23.47
2019-01-26T21:16:55.689Z,21.70
2019-01-26T21:19:36.547Z,24.40
2019-01-26T21:22:17.409Z,24.23
2019-01-26T21:24:58.167Z,24.77
2019-01-26T21:27:39.152Z,24.07
2019-01-26T21:30:20.018Z,27.37
2019-01-26T21:33:00.634Z,25.53
2019-01-26T21:35:41.468Z,26.43
2019-01-26T21:38:22.411Z,26.27
2019-01-26T21:41:02.962Z,28.63
2019-01-26T21:43:43.681Z,29.00
2019-01-26T21:46:12.120Z,26.33
2019-01-26T21:48:59.956Z,29.60
2019-01-26T21:51:47.714Z,27.00
2019-01-26T21:54:35.490Z,26.93
2019-01-26T21:57:23.562Z,29.23
2019-01-26T22:00:32.151Z,27.87
2019-01-26T22:03:20.035Z,28.10
2019-01-26T22:06:07.773Z,30.50
2019-01-26T22:08:56.420Z,31.03
2019-01-26T22:14:51.125Z,29.00
2019-01-26T22:17:39.131Z,33.37
2019-01-26T22:20:27.761Z,28.43
2019-01-26T22:23:08.889Z,30.23
2019-01-26T22:25:49.750Z,27.13
2019-01-26T22:28:29.958Z,27.03
2019-01-26T22:31:10.917Z,33.37
2019-01-26T22:33:51.363Z,27.40
2019-01-26T22:36:32.780Z,30.03
2019-01-26T22:39:13.648Z,29.93
2019-01-26T22:41:54.329Z,31.00
2019-01-26T22:44:35.169Z,29.03
2019-01-26T22:47:16.062Z,30.43
2019-01-26T22:49:57.021Z,30.57
2019-01-26T22:52:37.886Z,32.07
2019-01-26T22:55:18.472Z,33.47
2019-01-26T22:57:59.377Z,30.03
2019-01-26T23:03:47.362Z,29.90
2019-01-26T23:06:28.098Z,29.83
2019-01-26T23:09:09.074Z,30.33
2019-01-26T23:11:49.376Z,34.30
2019-01-26T23:14:30.950Z,32.20
2019-01-26T23:17:12.199Z,32.37
2019-01-26T23:19:52.888Z,32.20
2019-01-26T23:22:33.614Z,31.13
2019-01-26T23:25:14.757Z,30.33
2019-01-26T23:27:55.757Z,32.67
2019-01-26T23:33:18.691Z,31.27
2019-01-26T23:35:59.483Z,34.40
2019-01-26T23:38:40.612Z,31.13
2019-01-26T23:41:21.268Z,32.67
2019-01-26T23:44:02.237Z,32.60
2019-01-26T23:46:43.140Z,32.63
2019-01-26T23:49:23.895Z,34.00
2019-01-26T23:52:04.442Z,34.43
2019-01-26T23:54:45.216Z,33.23
2019-01-26T23:57:26.064Z,33.93
